Aérodrome :
LOGIN :

S'inscrire | Disclaimer

   EN    FR    IT 

 










Légende :    VFR   VFR Marginal   IFR   IFR Intensif   IFR Très Intensif
Visi : 
Plafond : 
>= 8 km
>= 3000ft
5 à 8 km
1000 à 3000 ft
1500m à 5 km
500 à 1000 ft
800 à 1500m
200 à 500 ft
< 800m
< 200 ft
Symboles :   Orages  Brouillard  Fortes neiges  Fortes précipitations  Vent > 20 kt
SIGMETs :   Divers  Orages  Givrage  Turbulence  Onde Orograph.  Cendres Volcan.






- Altitude de l'aérodrome : 299 ft
- Code IATA : EDM


LFRI - La Roche Sur Yon - Les Ajoncs

DERNIER METAR :
  • 241430Z AUTO 29012KT 8000 FEW015 SCT042 BKN060 08/05 Q1002 TEMPO 30015G30KT 3000 SHRA SCT008 BKN012CB

METARs EXPIRÉS :
  • 241400Z AUTO 28013KT 9999 FEW020/// BKN031/// BKN045/// ///TCU 07/05 Q1003 TEMPO 30015G30KT 3000 SHRA SCT008 BKN012CB
  • 241330Z AUTO 26008KT 9999 -RA BKN035/// BKN045/// BKN060/// ///TCU 07/05 Q1003 TEMPO 30015G30KT 3000 SHRA SCT008 BKN012CB
  • 241300Z AUTO 29016G26KT 6000 -RA FEW018 BKN025 BKN039 06/05 Q1003 TEMPO 3000 SHRA SCT008 BKN012CB
  • 241230Z AUTO 27006KT 230V290 9999 FEW022 BKN064 BKN092 07/06 Q1003 TEMPO 30015G30KT 3000 SHRA SCT008 BKN012CB
  • 241200Z AUTO 28013G24KT 240V310 9000 RA FEW018/// SCT028/// BKN036/// ///TCU 07/05 Q1003 TEMPO 3000 SHRA SCT008 BKN012CB

TAF TAF LFRI
Valide du 24 à 12h jusqu'au 25 à 12h UTC


241100Z 2412/2512 26012KT 9999 SCT030
TEMPO 2412/2418 30015G30KT 3000 SHRA SCT008 BKN012CB
PROB30
TEMPO 2418/2421 28015G27KT 4500 SHRA BKN012CB
BECMG 2505/2507 32010KT



MET'MAP, la Météo Aéronautique d'un coup d'oeil ! - Copyright ORBIFLY Décembre 2007 - Disclaimer

ORBIFLY MET'MAP TEAM :

Programmation & Développement : Alexandra Zaïnal
Sur une idée originale de : Baudouin d'Aumeries
Assistance à la programmation : Marc-Olivier Méhu
Soutien technique & logistique : Manuel Goepfert

Contact : metmap@orbifly.com




SOURCES & CREDITS :

   NOAA